sensor_id;sensor_type;location;lat;lon;timestamp;temperature;humidity
44731;DHT22;30458;47.448;19.032;2022-08-11T00:03:32;23.90;64.80
44731;DHT22;30458;47.448;19.032;2022-08-11T00:13:39;24.00;65.20
44731;DHT22;30458;47.448;19.032;2022-08-11T00:23:56;24.00;65.50
44731;DHT22;30458;47.448;19.032;2022-08-11T00:34:05;23.90;65.80
44731;DHT22;30458;47.448;19.032;2022-08-11T01:04:55;23.60;67.00
44731;DHT22;30458;47.448;19.032;2022-08-11T01:35:38;23.30;68.10
44731;DHT22;30458;47.448;19.032;2022-08-11T01:46:21;23.10;69.00
44731;DHT22;30458;47.448;19.032;2022-08-11T02:27:21;22.90;69.80
44731;DHT22;30458;47.448;19.032;2022-08-11T02:37:49;22.80;69.60
44731;DHT22;30458;47.448;19.032;2022-08-11T03:19:21;22.60;70.70
44731;DHT22;30458;47.448;19.032;2022-08-11T04:31:37;23.10;70.20
44731;DHT22;30458;47.448;19.032;2022-08-11T04:53:09;24.00;68.10
44731;DHT22;30458;47.448;19.032;2022-08-11T05:14:32;25.10;65.90
44731;DHT22;30458;47.448;19.032;2022-08-11T05:25:10;26.70;63.40
44731;DHT22;30458;47.448;19.032;2022-08-11T05:35:37;28.20;61.00
44731;DHT22;30458;47.448;19.032;2022-08-11T05:45:40;27.60;61.00
44731;DHT22;30458;47.448;19.032;2022-08-11T05:56:04;28.30;60.10
44731;DHT22;30458;47.448;19.032;2022-08-11T06:16:59;29.20;58.70
44731;DHT22;30458;47.448;19.032;2022-08-11T06:27:00;28.70;59.90
44731;DHT22;30458;47.448;19.032;2022-08-11T06:37:16;29.40;58.60
44731;DHT22;30458;47.448;19.032;2022-08-11T06:47:20;30.30;57.80
44731;DHT22;30458;47.448;19.032;2022-08-11T06:57:21;31.90;55.30
44731;DHT22;30458;47.448;19.032;2022-08-11T07:08:21;33.20;53.00
44731;DHT22;30458;47.448;19.032;2022-08-11T07:18:47;32.70;52.40
44731;DHT22;30458;47.448;19.032;2022-08-11T07:29:11;32.70;53.50
44731;DHT22;30458;47.448;19.032;2022-08-11T07:39:19;32.20;54.10
44731;DHT22;30458;47.448;19.032;2022-08-11T07:49:23;31.70;53.20
44731;DHT22;30458;47.448;19.032;2022-08-11T07:59:43;31.90;53.10
44731;DHT22;30458;47.448;19.032;2022-08-11T08:10:12;31.60;53.60
44731;DHT22;30458;47.448;19.032;2022-08-11T08:20:36;31.50;52.00
44731;DHT22;30458;47.448;19.032;2022-08-11T08:30:37;31.20;53.10
44731;DHT22;30458;47.448;19.032;2022-08-11T08:40:51;30.30;54.20
44731;DHT22;30458;47.448;19.032;2022-08-11T08:50:59;30.20;54.30
44731;DHT22;30458;47.448;19.032;2022-08-11T09:01:20;29.90;55.30
44731;DHT22;30458;47.448;19.032;2022-08-11T09:11:22;29.60;55.70
44731;DHT22;30458;47.448;19.032;2022-08-11T09:21:49;29.60;54.60
44731;DHT22;30458;47.448;19.032;2022-08-11T09:32:11;29.40;56.10
44731;DHT22;30458;47.448;19.032;2022-08-11T09:42:17;29.30;53.20
44731;DHT22;30458;47.448;19.032;2022-08-11T09:52:23;29.30;52.30
44731;DHT22;30458;47.448;19.032;2022-08-11T10:02:28;29.10;51.80
44731;DHT22;30458;47.448;19.032;2022-08-11T10:12:36;28.70;51.20
44731;DHT22;30458;47.448;19.032;2022-08-11T10:22:39;28.40;53.40
44731;DHT22;30458;47.448;19.032;2022-08-11T10:32:59;28.10;54.60
44731;DHT22;30458;47.448;19.032;2022-08-11T10:43:20;28.10;55.90
44731;DHT22;30458;47.448;19.032;2022-08-11T10:53:22;28.10;53.70
44731;DHT22;30458;47.448;19.032;2022-08-11T11:03:45;28.00;53.60
44731;DHT22;30458;47.448;19.032;2022-08-11T11:13:50;28.00;52.60
44731;DHT22;30458;47.448;19.032;2022-08-11T11:44:43;28.40;50.90
44731;DHT22;30458;47.448;19.032;2022-08-11T11:54:45;28.40;50.20
44731;DHT22;30458;47.448;19.032;2022-08-11T12:04:50;28.30;49.80
44731;DHT22;30458;47.448;19.032;2022-08-11T12:14:53;28.10;51.20
44731;DHT22;30458;47.448;19.032;2022-08-11T12:24:54;28.00;51.20
44731;DHT22;30458;47.448;19.032;2022-08-11T12:35:14;28.10;51.50
44731;DHT22;30458;47.448;19.032;2022-08-11T12:45:15;28.20;51.80
44731;DHT22;30458;47.448;19.032;2022-08-11T12:55:31;28.40;51.80
44731;DHT22;30458;47.448;19.032;2022-08-11T13:05:53;28.30;52.10
44731;DHT22;30458;47.448;19.032;2022-08-11T13:15:54;28.30;52.30
44731;DHT22;30458;47.448;19.032;2022-08-11T13:25:57;28.10;51.50
44731;DHT22;30458;47.448;19.032;2022-08-11T13:35:59;28.10;51.70
44731;DHT22;30458;47.448;19.032;2022-08-11T13:46:02;28.20;52.40
44731;DHT22;30458;47.448;19.032;2022-08-11T13:56:24;28.10;52.40
44731;DHT22;30458;47.448;19.032;2022-08-11T14:06:28;28.10;54.10
44731;DHT22;30458;47.448;19.032;2022-08-11T14:16:34;28.00;55.50
44731;DHT22;30458;47.448;19.032;2022-08-11T14:26:43;27.90;55.20
44731;DHT22;30458;47.448;19.032;2022-08-11T14:36:51;27.90;55.00
44731;DHT22;30458;47.448;19.032;2022-08-11T14:46:53;28.00;55.00
44731;DHT22;30458;47.448;19.032;2022-08-11T14:57:09;27.90;54.60
44731;DHT22;30458;47.448;19.032;2022-08-11T15:07:11;27.90;54.90
44731;DHT22;30458;47.448;19.032;2022-08-11T15:17:12;28.00;54.60
44731;DHT22;30458;47.448;19.032;2022-08-11T15:27:18;28.00;53.60
44731;DHT22;30458;47.448;19.032;2022-08-11T15:37:40;27.80;53.90
44731;DHT22;30458;47.448;19.032;2022-08-11T15:47:48;27.60;54.00
44731;DHT22;30458;47.448;19.032;2022-08-11T15:57:58;27.50;54.20
44731;DHT22;30458;47.448;19.032;2022-08-11T16:08:20;27.40;54.30
44731;DHT22;30458;47.448;19.032;2022-08-11T16:18:29;27.30;54.70
44731;DHT22;30458;47.448;19.032;2022-08-11T16:28:40;27.10;54.90
44731;DHT22;30458;47.448;19.032;2022-08-11T16:38:44;27.00;56.00
44731;DHT22;30458;47.448;19.032;2022-08-11T16:48:48;26.90;56.80
44731;DHT22;30458;47.448;19.032;2022-08-11T16:58:53;26.80;57.20
44731;DHT22;30458;47.448;19.032;2022-08-11T17:09:19;26.80;57.60
44731;DHT22;30458;47.448;19.032;2022-08-11T17:19:48;26.90;57.40
44731;DHT22;30458;47.448;19.032;2022-08-11T17:29:58;26.80;57.80
44731;DHT22;30458;47.448;19.032;2022-08-11T17:40:04;26.10;59.90
44731;DHT22;30458;47.448;19.032;2022-08-11T17:50:05;25.20;61.20
44731;DHT22;30458;47.448;19.032;2022-08-11T18:00:13;25.40;61.70
44731;DHT22;30458;47.448;19.032;2022-08-11T18:10:17;25.00;62.70
44731;DHT22;30458;47.448;19.032;2022-08-11T18:20:37;24.70;63.70
44731;DHT22;30458;47.448;19.032;2022-08-11T18:31:00;24.70;63.90
44731;DHT22;30458;47.448;19.032;2022-08-11T18:41:23;24.70;63.40
44731;DHT22;30458;47.448;19.032;2022-08-11T18:51:47;24.50;63.30
44731;DHT22;30458;47.448;19.032;2022-08-11T19:02:09;24.40;63.20
44731;DHT22;30458;47.448;19.032;2022-08-11T19:12:33;24.50;63.40
44731;DHT22;30458;47.448;19.032;2022-08-11T19:22:55;24.40;63.40
44731;DHT22;30458;47.448;19.032;2022-08-11T19:33:18;24.30;64.10
44731;DHT22;30458;47.448;19.032;2022-08-11T19:43:43;24.40;64.10
44731;DHT22;30458;47.448;19.032;2022-08-11T19:54:05;24.40;63.70
44731;DHT22;30458;47.448;19.032;2022-08-11T20:04:27;24.40;63.70
44731;DHT22;30458;47.448;19.032;2022-08-11T20:14:48;24.30;63.80
44731;DHT22;30458;47.448;19.032;2022-08-11T20:25:11;24.30;63.90
44731;DHT22;30458;47.448;19.032;2022-08-11T20:35:32;24.30;64.00
44731;DHT22;30458;47.448;19.032;2022-08-11T20:45:52;24.30;64.20
44731;DHT22;30458;47.448;19.032;2022-08-11T20:56:15;24.20;64.50
44731;DHT22;30458;47.448;19.032;2022-08-11T21:06:36;24.10;64.60
44731;DHT22;30458;47.448;19.032;2022-08-11T21:16:59;24.00;64.90
44731;DHT22;30458;47.448;19.032;2022-08-11T21:27:22;24.00;65.00
44731;DHT22;30458;47.448;19.032;2022-08-11T21:37:44;24.00;65.30
44731;DHT22;30458;47.448;19.032;2022-08-11T21:48:05;23.90;65.00
44731;DHT22;30458;47.448;19.032;2022-08-11T21:58:25;23.80;65.60
44731;DHT22;30458;47.448;19.032;2022-08-11T22:08:44;23.60;65.70
44731;DHT22;30458;47.448;19.032;2022-08-11T22:19:04;23.50;65.90
44731;DHT22;30458;47.448;19.032;2022-08-11T22:29:25;23.30;66.00
44731;DHT22;30458;47.448;19.032;2022-08-11T22:39:47;23.20;66.20
44731;DHT22;30458;47.448;19.032;2022-08-11T22:50:07;23.00;66.90
44731;DHT22;30458;47.448;19.032;2022-08-11T23:00:28;22.90;67.20
44731;DHT22;30458;47.448;19.032;2022-08-11T23:10:47;22.90;67.20
44731;DHT22;30458;47.448;19.032;2022-08-11T23:21:13;22.70;67.90
44731;DHT22;30458;47.448;19.032;2022-08-11T23:31:34;22.50;68.30
44731;DHT22;30458;47.448;19.032;2022-08-11T23:41:54;22.40;68.30
44731;DHT22;30458;47.448;19.032;2022-08-11T23:52:18;22.50;68.50
